createdAt,value
2018-04-14T00:01:42.196Z,95443
2018-04-14T00:04:13.508Z,95448
2018-04-14T00:09:20.989Z,95448
2018-04-14T00:12:04.231Z,95454
2018-04-14T00:14:35.555Z,95451
2018-04-14T00:17:06.764Z,95453
2018-04-14T00:19:44.157Z,95463
2018-04-14T00:22:15.520Z,95467
2018-04-14T00:24:46.761Z,95482
2018-04-14T00:27:17.762Z,95475
2018-04-14T00:32:51.934Z,95476
2018-04-14T00:35:39.766Z,95474
2018-04-14T00:38:10.624Z,95475
2018-04-14T00:40:43.107Z,95477
2018-04-14T00:43:14.531Z,95480
2018-04-14T00:45:46.417Z,95484
2018-04-14T00:57:42.333Z,95487
2018-04-14T01:03:27.771Z,95488
2018-04-14T01:06:04.167Z,95488
2018-04-14T01:11:26.941Z,95487
2018-04-14T01:13:59.029Z,95485
2018-04-14T01:16:39.444Z,95488
2018-04-14T01:22:07.588Z,95485
2018-04-14T01:24:39.987Z,95491
2018-04-14T01:27:11.127Z,95489
2018-04-14T01:29:42.395Z,95503
2018-04-14T01:32:31.950Z,95499
2018-04-14T01:35:07.576Z,95502
2018-04-14T01:37:46.847Z,95502
2018-04-14T01:43:46.826Z,95502
2018-04-14T01:46:51.461Z,95501
2018-04-14T01:50:00.345Z,95504
2018-04-14T01:59:22.262Z,95506
2018-04-14T02:11:08.244Z,95512
2018-04-14T02:13:39.134Z,95510
2018-04-14T02:16:10.066Z,95513
2018-04-14T02:18:41.029Z,95516
2018-04-14T02:21:11.790Z,95523
2018-04-14T02:23:42.384Z,95521
2018-04-14T02:26:13.735Z,95529
2018-04-14T02:28:44.400Z,95530
2018-04-14T02:31:19.779Z,95530
2018-04-14T02:33:50.593Z,95538
2018-04-14T02:36:21.390Z,95528
2018-04-14T02:38:52.297Z,95529
2018-04-14T02:41:23.429Z,95527
2018-04-14T02:43:54.101Z,95529
2018-04-14T02:46:24.971Z,95529
2018-04-14T02:48:55.701Z,95534
2018-04-14T02:51:26.389Z,95531
2018-04-14T02:53:57.082Z,95530
2018-04-14T02:56:27.855Z,95536
2018-04-14T02:58:58.592Z,95536
2018-04-14T03:01:29.261Z,95541
2018-04-14T03:04:00.178Z,95547
2018-04-14T03:06:31.318Z,95547
2018-04-14T03:09:01.996Z,95553
2018-04-14T03:11:32.985Z,95556
2018-04-14T03:14:03.750Z,95559
2018-04-14T03:16:34.627Z,95566
2018-04-14T03:19:05.344Z,95572
2018-04-14T03:21:36.021Z,95576
2018-04-14T03:24:06.607Z,95577
2018-04-14T03:26:37.731Z,95579
2018-04-14T03:29:08.381Z,95576
2018-04-14T03:34:39.598Z,95579
2018-04-14T03:37:10.629Z,95584
2018-04-14T03:39:41.560Z,95589
2018-04-14T03:42:12.200Z,95590
2018-04-14T03:44:42.907Z,95586
2018-04-14T03:47:14.932Z,95585
2018-04-14T03:49:46.015Z,95587
2018-04-14T03:52:16.676Z,95603
2018-04-14T03:54:48.467Z,95599
2018-04-14T03:57:19.110Z,95597
2018-04-14T03:59:50.033Z,95599
2018-04-14T04:02:20.693Z,95600
2018-04-14T04:04:51.732Z,95604
2018-04-14T04:07:22.593Z,95603
2018-04-14T04:09:53.332Z,95609
2018-04-14T04:12:24.049Z,95610
2018-04-14T04:14:55.072Z,95611
2018-04-14T04:17:26.024Z,95608
2018-04-14T04:20:30.696Z,95612
2018-04-14T04:23:13.283Z,95621
2018-04-14T04:25:44.757Z,95618
2018-04-14T04:28:15.192Z,95620
2018-04-14T04:30:45.755Z,95625
2018-04-14T04:33:16.295Z,95622
2018-04-14T04:35:46.858Z,95622
2018-04-14T04:38:17.337Z,95622
2018-04-14T04:40:48.863Z,95624
2018-04-14T04:43:19.360Z,95622
2018-04-14T04:45:50.119Z,95628
2018-04-14T04:48:20.808Z,95630
2018-04-14T04:50:51.501Z,95633
2018-04-14T04:53:22.111Z,95625
2018-04-14T04:55:53.157Z,95633
2018-04-14T04:58:23.869Z,95639
2018-04-14T05:00:55.271Z,95639
2018-04-14T05:03:26.035Z,95641
2018-04-14T05:05:56.639Z,95647
2018-04-14T05:08:27.358Z,95639
2018-04-14T05:11:01.386Z,95639
2018-04-14T05:13:32.655Z,95650
2018-04-14T05:16:15.432Z,95656
2018-04-14T05:24:58.533Z,95673
2018-04-14T05:30:50.294Z,95684
2018-04-14T05:33:39.241Z,95684
2018-04-14T05:36:11.756Z,95687
2018-04-14T05:38:43.201Z,95692
2018-04-14T05:41:14.594Z,95687
2018-04-14T05:43:57.270Z,95687
2018-04-14T05:46:43.550Z,95688
2018-04-14T05:49:27.605Z,95687
2018-04-14T05:51:58.865Z,95692
2018-04-14T05:57:47.251Z,95696
2018-04-14T06:00:18.009Z,95697
2018-04-14T06:02:49.465Z,95704
2018-04-14T06:05:20.209Z,95711
2018-04-14T06:07:52.385Z,95707
2018-04-14T06:10:23.282Z,95712
2018-04-14T06:12:53.928Z,95719
2018-04-14T06:15:24.437Z,95727
2018-04-14T06:17:55.824Z,95731
2018-04-14T06:20:26.541Z,95741
2018-04-14T06:22:57.320Z,95744
2018-04-14T06:25:29.611Z,95753
2018-04-14T06:28:00.415Z,95752
2018-04-14T06:30:30.990Z,95756
2018-04-14T06:33:02.304Z,95763
2018-04-14T06:42:07.836Z,95759
2018-04-14T06:44:38.721Z,95760
2018-04-14T06:47:09.926Z,95769
2018-04-14T06:49:40.981Z,95769
2018-04-14T06:52:11.799Z,95766
2018-04-14T06:54:44.574Z,95767
2018-04-14T07:03:26.395Z,95786
2018-04-14T07:05:59.829Z,95782
2018-04-14T07:08:31.306Z,95786
2018-04-14T07:11:13.668Z,95782
2018-04-14T07:16:26.645Z,95791
2018-04-14T07:19:01.001Z,95795
2018-04-14T07:21:48.708Z,95792
2018-04-14T07:24:22.699Z,95800
2018-04-14T07:26:55.625Z,95792
2018-04-14T07:29:27.948Z,95794
2018-04-14T07:32:00.867Z,95797
2018-04-14T07:34:31.528Z,95801
2018-04-14T08:36:03.567Z,95821
2018-04-14T09:32:01.586Z,95830
2018-04-14T09:48:03.086Z,95828
2018-04-14T09:50:37.567Z,95827
2018-04-14T09:56:34.326Z,95816
2018-04-14T10:08:48.101Z,95824
2018-04-14T10:11:19.084Z,95824
2018-04-14T10:22:28.472Z,95827
2018-04-14T10:25:17.413Z,95828
2018-04-14T10:31:23.205Z,95826
2018-04-14T10:34:11.893Z,95826
2018-04-14T10:39:28.039Z,95830
2018-04-14T10:42:00.116Z,95830
2018-04-14T10:44:31.062Z,95826
2018-04-14T10:47:03.937Z,95825
2018-04-14T10:49:34.834Z,95823
2018-04-14T10:52:05.903Z,95828
2018-04-14T10:54:36.676Z,95825
2018-04-14T10:57:13.325Z,95823
2018-04-14T10:59:44.213Z,95827
2018-04-14T11:12:13.711Z,95813
2018-04-14T11:14:46.931Z,95818
2018-04-14T11:17:26.208Z,95809
2018-04-14T11:20:00.408Z,95805
2018-04-14T11:22:53.730Z,95806
2018-04-14T11:25:53.310Z,95799
2018-04-14T11:28:28.786Z,95803
2018-04-14T11:30:59.733Z,95800
2018-04-14T11:33:31.451Z,95795
2018-04-14T11:36:02.898Z,95794
2018-04-14T11:38:33.970Z,95796
2018-04-14T11:41:13.851Z,95798
2018-04-14T11:43:44.764Z,95792
2018-04-14T11:46:17.540Z,95794
2018-04-14T11:48:48.413Z,95792
2018-04-14T11:51:20.233Z,95793
2018-04-14T11:53:51.291Z,95789
2018-04-14T11:56:23.677Z,95800
2018-04-14T11:58:54.602Z,95797
2018-04-14T12:01:28.930Z,95797
2018-04-14T12:04:00.647Z,95797
2018-04-14T12:06:31.846Z,95792
2018-04-14T12:09:04.832Z,95780
2018-04-14T12:11:49.558Z,95792
2018-04-14T12:14:42.424Z,95796
2018-04-14T12:17:17.396Z,95789
2018-04-14T12:19:49.498Z,95797
2018-04-14T12:22:38.486Z,95799
2018-04-14T12:25:30.733Z,95803
2018-04-14T13:25:57.365Z,95767
2018-04-14T13:28:30.388Z,95766
2018-04-14T13:31:05.898Z,95776
2018-04-14T13:33:37.269Z,95779
2018-04-14T13:36:09.242Z,95780
2018-04-14T13:38:41.160Z,95782
2018-04-14T13:41:15.152Z,95780
2018-04-14T13:43:50.789Z,95775
2018-04-14T13:47:04.538Z,95781
2018-04-14T13:50:02.389Z,95768
2018-04-14T13:56:22.715Z,95758
2018-04-14T13:58:55.214Z,95760
2018-04-14T14:01:35.146Z,95761
2018-04-14T14:04:11.955Z,95758
2018-04-14T14:06:45.264Z,95753
2018-04-14T14:12:39.293Z,95761
2018-04-14T14:15:14.508Z,95766
2018-04-14T14:17:45.541Z,95757
2018-04-14T14:20:18.104Z,95754
2018-04-14T14:22:49.802Z,95751
2018-04-14T14:25:22.325Z,95750
2018-04-14T14:27:53.863Z,95753
2018-04-14T14:30:24.888Z,95756
2018-04-14T14:32:56.143Z,95756
2018-04-14T14:35:27.177Z,95757
2018-04-14T14:38:03.551Z,95755
2018-04-14T14:40:37.922Z,95754
2018-04-14T14:43:11.312Z,95758
2018-04-14T14:45:43.302Z,95762
2018-04-14T14:48:14.372Z,95765
2018-04-14T14:50:45.367Z,95765
2018-04-14T14:53:17.481Z,95771
2018-04-14T14:55:48.275Z,95767
2018-04-14T14:58:19.980Z,95767
2018-04-14T15:00:51.567Z,95777
2018-04-14T15:03:22.919Z,95772
2018-04-14T15:05:53.653Z,95770
2018-04-14T15:08:24.536Z,95772
2018-04-14T15:10:55.236Z,95764
2018-04-14T15:13:25.865Z,95765
2018-04-14T15:16:02.870Z,95761
2018-04-14T15:18:35.279Z,95767
2018-04-14T15:21:06.258Z,95762
2018-04-14T15:23:36.907Z,95753
2018-04-14T15:26:07.623Z,95760
2018-04-14T15:28:39.913Z,95750
2018-04-14T15:31:14.136Z,95749
2018-04-14T15:33:48.801Z,95749
2018-04-14T15:36:26.883Z,95753
2018-04-14T15:38:57.795Z,95747
2018-04-14T15:41:28.677Z,95734
2018-04-14T15:44:06.511Z,95737
2018-04-14T15:46:50.157Z,95734
2018-04-14T15:49:42.581Z,95743
2018-04-14T15:52:13.835Z,95738
2018-04-14T15:54:47.656Z,95736
2018-04-14T15:57:18.852Z,95732
2018-04-14T15:59:50.109Z,95722
2018-04-14T16:02:21.288Z,95725
2018-04-14T16:04:53.457Z,95725
2018-04-14T16:07:24.955Z,95718
2018-04-14T16:09:59.429Z,95716
2018-04-14T16:12:32.827Z,95713
2018-04-14T16:15:05.391Z,95713
2018-04-14T16:17:37.666Z,95717
2018-04-14T16:20:08.876Z,95712
2018-04-14T16:22:42.419Z,95712
2018-04-14T16:25:15.622Z,95706
2018-04-14T16:27:48.384Z,95702
2018-04-14T16:30:21.445Z,95701
2018-04-14T16:32:52.897Z,95703
2018-04-14T16:35:30.617Z,95700
2018-04-14T16:38:02.204Z,95703
2018-04-14T16:40:34.633Z,95702
2018-04-14T16:43:06.672Z,95697
2018-04-14T16:45:38.058Z,95695
2018-04-14T16:48:09.089Z,95693
2018-04-14T16:50:40.112Z,95686
2018-04-14T16:53:12.469Z,95691
2018-04-14T16:55:43.970Z,95699
2018-04-14T16:58:16.668Z,95696
2018-04-14T17:00:49.933Z,95699
2018-04-14T17:03:21.285Z,95698
2018-04-14T17:05:54.051Z,95695
2018-04-14T17:08:26.537Z,95697
2018-04-14T17:10:57.842Z,95699
2018-04-14T17:13:32.214Z,95701
2018-04-14T17:16:04.639Z,95701
2018-04-14T17:18:38.046Z,95703
2018-04-14T17:21:14.645Z,95706
2018-04-14T17:23:48.098Z,95705
2018-04-14T17:26:19.455Z,95711
2018-04-14T17:28:51.797Z,95710
2018-04-14T17:31:24.870Z,95712
2018-04-14T17:33:58.722Z,95710
2018-04-14T17:36:33.108Z,95714
2018-04-14T17:39:09.166Z,95715
2018-04-14T17:41:42.451Z,95712
2018-04-14T17:44:17.034Z,95716
2018-04-14T17:49:41.700Z,95714
2018-04-14T17:52:12.464Z,95715
2018-04-14T17:54:43.309Z,95714
2018-04-14T17:57:14.270Z,95713
2018-04-14T17:59:45.135Z,95717
2018-04-14T18:02:24.540Z,95722
2018-04-14T18:04:55.441Z,95726
2018-04-14T18:07:27.456Z,95725
2018-04-14T18:10:00.656Z,95725
2018-04-14T18:12:32.086Z,95724
2018-04-14T18:15:03.090Z,95723
2018-04-14T18:17:34.967Z,95726
2018-04-14T18:20:06.427Z,95734
2018-04-14T18:22:37.656Z,95735
2018-04-14T18:25:08.642Z,95746
2018-04-14T18:27:39.674Z,95749
2018-04-14T18:30:10.679Z,95755
2018-04-14T18:32:46.373Z,95759
2018-04-14T18:35:30.065Z,95764
2018-04-14T18:38:13.274Z,95765
2018-04-14T18:40:44.145Z,95766
2018-04-14T18:43:15.040Z,95771
2018-04-14T18:45:46.194Z,95772
2018-04-14T18:48:17.057Z,95770
2018-04-14T18:50:47.930Z,95772
2018-04-14T18:53:27.091Z,95776
2018-04-14T18:55:59.217Z,95778
2018-04-14T18:58:32.197Z,95776
2018-04-14T19:03:53.869Z,95773
2018-04-14T19:06:31.859Z,95778
2018-04-14T19:09:07.737Z,95780
2018-04-14T19:11:39.678Z,95785
2018-04-14T19:14:11.678Z,95788
2018-04-14T19:16:42.788Z,95784
2018-04-14T19:19:13.938Z,95781
2018-04-14T19:21:49.170Z,95789
2018-04-14T19:48:34.925Z,95807
2018-04-14T19:51:11.140Z,95799
2018-04-14T19:53:50.738Z,95797
2018-04-14T19:56:22.784Z,95796
2018-04-14T19:58:59.639Z,95800
2018-04-14T20:01:30.782Z,95804
2018-04-14T20:04:02.613Z,95798
2018-04-14T20:06:42.615Z,95791
2018-04-14T20:09:14.423Z,95792
2018-04-14T20:21:31.606Z,95797
2018-04-14T20:27:02.802Z,95791
2018-04-14T20:29:34.154Z,95788
2018-04-14T20:42:17.895Z,95771
2018-04-14T20:58:01.095Z,95775
2018-04-14T21:00:44.717Z,95772
2018-04-14T21:03:21.384Z,95768
2018-04-14T21:06:06.703Z,95766
2018-04-14T21:08:40.123Z,95761
2018-04-14T21:11:11.826Z,95762
2018-04-14T21:13:44.053Z,95765
2018-04-14T21:23:00.025Z,95756
2018-04-14T21:31:38.819Z,95756
2018-04-14T21:34:10.609Z,95755
2018-04-14T21:36:42.018Z,95759
2018-04-14T21:39:17.891Z,95756
2018-04-14T21:41:50.026Z,95753
2018-04-14T21:44:22.521Z,95754
2018-04-14T21:46:55.263Z,95759
2018-04-14T21:49:26.904Z,95760
2018-04-14T21:51:58.210Z,95760
2018-04-14T22:12:40.183Z,95729
2018-04-14T22:15:13.159Z,95728
2018-04-14T22:17:51.953Z,95728
2018-04-14T22:20:23.435Z,95732
2018-04-14T22:26:26.853Z,95727
2018-04-14T22:34:54.605Z,95707
2018-04-14T22:37:27.649Z,95708
2018-04-14T22:40:06.063Z,95703
2018-04-14T22:42:38.046Z,95705
2018-04-14T22:48:12.213Z,95699
2018-04-14T23:01:21.296Z,95704
2018-04-14T23:10:23.522Z,95689
2018-04-14T23:12:55.470Z,95684
2018-04-14T23:24:38.864Z,95664
2018-04-14T23:49:36.926Z,95645
2018-04-14T23:55:11.208Z,95640
